createdAt,value
2019-01-26T00:01:00.933Z,7.58
2019-01-26T00:03:30.430Z,7.97
2019-01-26T00:06:00.041Z,8.28
2019-01-26T00:08:29.351Z,7.92
2019-01-26T00:10:59.091Z,8.78
2019-01-26T00:13:30.091Z,8.38
2019-01-26T00:15:59.869Z,6.17
2019-01-26T00:18:30.955Z,7.90
2019-01-26T00:20:59.582Z,7.62
2019-01-26T00:23:29.039Z,7.47
2019-01-26T00:25:58.671Z,7.28
2019-01-26T00:28:28.308Z,7.72
2019-01-26T00:31:04.309Z,7.53
2019-01-26T00:33:35.147Z,6.80
2019-01-26T00:36:04.736Z,7.90
2019-01-26T00:38:34.470Z,6.65
2019-01-26T00:41:04.039Z,6.90
2019-01-26T00:43:33.581Z,7.45
2019-01-26T00:46:04.731Z,7.05
2019-01-26T00:48:34.446Z,6.25
2019-01-26T00:51:04.218Z,22.77
2019-01-26T00:53:33.927Z,6.90
2019-01-26T00:56:03.374Z,6.65
2019-01-26T00:58:33.046Z,8.53
2019-01-26T01:01:02.752Z,6.50
2019-01-26T01:03:32.402Z,8.38
2019-01-26T01:06:02.220Z,6.30
2019-01-26T01:08:31.858Z,6.92
2019-01-26T01:11:01.635Z,8.35
2019-01-26T01:13:31.256Z,7.05
2019-01-26T01:16:01.013Z,7.03
2019-01-26T01:18:30.563Z,7.33
2019-01-26T01:21:01.733Z,7.15
2019-01-26T01:23:30.073Z,7.45
2019-01-26T01:25:59.691Z,7.87
2019-01-26T01:28:29.427Z,7.42
2019-01-26T01:30:59.054Z,7.12
2019-01-26T01:33:28.520Z,7.87
2019-01-26T01:35:58.020Z,7.83
2019-01-26T01:38:27.585Z,8.35
2019-01-26T01:40:57.159Z,69.32
2019-01-26T01:43:26.763Z,9.63
2019-01-26T01:45:56.531Z,8.23
2019-01-26T01:48:26.194Z,7.70
2019-01-26T01:50:55.580Z,8.40
2019-01-26T01:53:25.594Z,7.62
2019-01-26T01:55:55.147Z,8.65
2019-01-26T01:58:25.039Z,9.00
2019-01-26T02:00:54.620Z,8.63
2019-01-26T02:03:24.229Z,19.73
2019-01-26T02:05:53.752Z,8.60
2019-01-26T02:08:23.231Z,9.38
2019-01-26T02:10:52.687Z,9.18
2019-01-26T02:13:22.467Z,8.83
2019-01-26T02:15:51.952Z,9.18
2019-01-26T02:18:21.887Z,9.63
2019-01-26T02:20:51.196Z,9.55
2019-01-26T02:23:20.878Z,8.18
2019-01-26T02:25:50.438Z,9.08
2019-01-26T02:28:20.013Z,9.98
2019-01-26T02:30:49.604Z,10.00
2019-01-26T02:33:19.354Z,8.10
2019-01-26T02:35:49.059Z,9.85
2019-01-26T02:38:18.528Z,11.20
2019-01-26T02:40:48.715Z,10.15
2019-01-26T02:43:18.220Z,10.20
2019-01-26T02:45:47.891Z,10.82
2019-01-26T02:48:17.850Z,10.72
2019-01-26T02:50:47.267Z,11.12
2019-01-26T02:53:16.751Z,8.28
2019-01-26T02:55:46.447Z,9.95
2019-01-26T02:58:16.118Z,10.75
2019-01-26T03:00:45.633Z,10.68
2019-01-26T03:03:15.268Z,11.08
2019-01-26T03:05:44.867Z,14.30
2019-01-26T03:08:14.561Z,11.90
2019-01-26T03:10:44.126Z,11.30
2019-01-26T03:13:13.839Z,11.25
2019-01-26T03:15:43.583Z,11.08
2019-01-26T03:18:13.259Z,10.38
2019-01-26T03:20:42.792Z,11.60
2019-01-26T03:23:12.523Z,10.70
2019-01-26T03:25:42.416Z,11.85
2019-01-26T03:28:11.921Z,11.70
2019-01-26T03:30:41.331Z,12.05
2019-01-26T03:33:11.003Z,12.78
2019-01-26T03:35:40.499Z,11.73
2019-01-26T03:38:10.105Z,11.28
2019-01-26T03:40:39.654Z,11.48
2019-01-26T03:43:09.309Z,11.30
2019-01-26T03:45:38.971Z,12.47
2019-01-26T03:48:09.227Z,13.28
2019-01-26T03:50:38.834Z,13.70
2019-01-26T03:53:08.720Z,13.80
2019-01-26T03:55:38.509Z,14.25
2019-01-26T03:58:08.329Z,14.78
2019-01-26T04:00:38.025Z,14.28
2019-01-26T04:03:07.665Z,13.50
2019-01-26T04:05:37.308Z,11.03
2019-01-26T04:08:06.937Z,14.87
2019-01-26T04:10:36.536Z,61.50
2019-01-26T04:13:06.023Z,14.10
2019-01-26T04:15:35.740Z,15.80
2019-01-26T04:18:05.431Z,13.35
2019-01-26T04:20:34.947Z,14.15
2019-01-26T04:23:04.796Z,16.17
2019-01-26T04:25:34.491Z,16.20
2019-01-26T04:28:04.097Z,15.65
2019-01-26T04:30:33.719Z,14.58
2019-01-26T04:33:03.420Z,16.07
2019-01-26T04:35:33.006Z,15.93
2019-01-26T04:38:02.762Z,13.45
2019-01-26T04:40:32.968Z,16.12
2019-01-26T04:43:02.550Z,18.17
2019-01-26T04:45:32.297Z,18.73
2019-01-26T04:48:01.838Z,18.07
2019-01-26T04:50:31.552Z,18.98
2019-01-26T04:53:01.100Z,18.42
2019-01-26T04:55:30.568Z,18.27
2019-01-26T04:58:00.286Z,18.57
2019-01-26T05:00:30.020Z,17.48
2019-01-26T05:02:59.626Z,18.95
2019-01-26T05:05:29.327Z,19.20
2019-01-26T05:07:58.990Z,20.20
2019-01-26T05:10:28.631Z,19.62
2019-01-26T05:12:58.256Z,17.70
2019-01-26T05:15:27.970Z,17.82
2019-01-26T05:17:57.504Z,20.02
2019-01-26T05:20:27.389Z,14.85
2019-01-26T05:22:57.030Z,21.35
2019-01-26T05:25:26.576Z,19.67
2019-01-26T05:27:56.297Z,18.77
2019-01-26T05:30:27.770Z,20.12
2019-01-26T05:32:57.261Z,19.98
2019-01-26T05:35:27.428Z,22.77
2019-01-26T05:37:57.175Z,23.00
2019-01-26T05:40:26.815Z,22.85
2019-01-26T05:42:56.528Z,23.38
2019-01-26T05:45:26.166Z,24.10
2019-01-26T05:47:55.887Z,20.20
2019-01-26T05:50:26.567Z,25.50
2019-01-26T05:52:56.074Z,20.82
2019-01-26T05:55:25.729Z,22.10
2019-01-26T05:57:55.626Z,22.85
2019-01-26T06:00:29.104Z,23.38
2019-01-26T06:02:58.878Z,23.38
2019-01-26T06:05:28.503Z,22.82
2019-01-26T06:07:58.151Z,23.67
2019-01-26T06:10:27.981Z,27.48
2019-01-26T06:12:58.882Z,23.07
2019-01-26T06:15:27.398Z,21.95
2019-01-26T06:17:57.342Z,83.95
2019-01-26T06:20:26.865Z,27.58
2019-01-26T06:22:56.600Z,17.15
2019-01-26T06:25:26.302Z,23.90
2019-01-26T06:27:55.975Z,22.50
2019-01-26T06:30:26.652Z,21.82
2019-01-26T06:32:56.355Z,17.57
2019-01-26T06:35:26.132Z,23.38
2019-01-26T06:37:55.736Z,23.30
2019-01-26T06:40:25.260Z,25.02
2019-01-26T06:42:55.039Z,24.23
2019-01-26T06:45:24.799Z,25.57
2019-01-26T06:47:54.306Z,24.23
2019-01-26T06:50:26.714Z,24.25
2019-01-26T06:52:56.307Z,25.12
2019-01-26T06:55:26.045Z,24.30
2019-01-26T06:57:55.881Z,168.60
2019-01-26T07:00:29.747Z,28.40
2019-01-26T07:02:59.513Z,19.05
2019-01-26T07:05:38.111Z,28.80
2019-01-26T07:08:08.023Z,23.95
2019-01-26T07:10:37.564Z,25.60
2019-01-26T07:13:07.312Z,22.80
2019-01-26T07:15:36.736Z,25.68
2019-01-26T07:18:09.587Z,19.73
2019-01-26T07:20:36.258Z,29.63
2019-01-26T07:23:06.040Z,28.02
2019-01-26T07:25:35.624Z,27.07
2019-01-26T07:28:05.135Z,28.87
2019-01-26T07:30:34.895Z,28.85
2019-01-26T07:33:04.706Z,24.20
2019-01-26T07:35:34.423Z,24.82
2019-01-26T07:38:04.233Z,26.23
2019-01-26T07:40:34.028Z,28.23
2019-01-26T07:43:03.507Z,19.85
2019-01-26T07:45:33.347Z,26.50
2019-01-26T07:48:02.851Z,17.80
2019-01-26T07:50:32.431Z,25.95
2019-01-26T07:53:02.171Z,25.77
2019-01-26T07:55:31.780Z,72.97
2019-01-26T07:58:01.345Z,27.35
2019-01-26T08:00:30.999Z,29.75
2019-01-26T08:03:00.604Z,25.92
2019-01-26T08:05:30.173Z,25.70
2019-01-26T08:07:59.722Z,19.17
2019-01-26T08:10:29.399Z,26.52
2019-01-26T08:12:58.940Z,28.73
2019-01-26T08:15:32.215Z,28.75
2019-01-26T08:18:01.923Z,25.77
2019-01-26T08:20:31.640Z,29.63
2019-01-26T08:23:01.151Z,30.92
2019-01-26T08:25:30.930Z,30.95
2019-01-26T08:28:00.619Z,30.57
2019-01-26T08:30:30.156Z,28.77
2019-01-26T08:32:59.871Z,26.00
2019-01-26T08:35:29.585Z,26.85
2019-01-26T08:37:59.435Z,25.35
2019-01-26T08:40:29.175Z,29.85
2019-01-26T08:42:58.771Z,31.02
2019-01-26T08:45:28.451Z,25.48
2019-01-26T08:47:58.015Z,27.90
2019-01-26T08:50:27.668Z,27.30
2019-01-26T08:52:58.995Z,29.75
2019-01-26T08:55:28.406Z,30.70
2019-01-26T08:57:58.032Z,29.95
2019-01-26T09:00:28.536Z,29.52
2019-01-26T09:05:06.021Z,25.08
2019-01-26T09:07:35.884Z,29.40
2019-01-26T09:10:05.696Z,20.23
2019-01-26T09:12:35.162Z,21.95
2019-01-26T09:15:05.123Z,31.42
2019-01-26T09:17:34.689Z,28.27
2019-01-26T09:20:04.370Z,30.97
2019-01-26T09:22:34.049Z,29.50
2019-01-26T09:25:03.952Z,28.17
2019-01-26T09:27:33.669Z,56.13
2019-01-26T09:30:03.412Z,32.53
2019-01-26T09:32:32.845Z,28.92
2019-01-26T09:35:02.483Z,25.97
2019-01-26T09:37:32.415Z,31.68
2019-01-26T09:40:01.884Z,29.48
2019-01-26T09:42:31.685Z,27.52
2019-01-26T09:45:01.343Z,27.70
2019-01-26T09:47:30.909Z,29.48
2019-01-26T09:50:00.415Z,35.08
2019-01-26T09:52:30.177Z,31.05
2019-01-26T09:54:59.948Z,30.97
2019-01-26T09:57:29.587Z,30.17
2019-01-26T09:59:59.321Z,31.52
2019-01-26T10:02:28.950Z,26.07
2019-01-26T10:04:58.467Z,29.75
2019-01-26T10:07:28.374Z,27.25
2019-01-26T10:09:58.095Z,28.15
2019-01-26T10:12:27.655Z,24.55
2019-01-26T10:14:57.450Z,20.80
2019-01-26T10:17:26.917Z,27.05
2019-01-26T10:19:56.540Z,26.75
2019-01-26T10:22:26.063Z,27.07
2019-01-26T10:24:55.433Z,20.35
2019-01-26T10:27:24.916Z,48.98
2019-01-26T10:29:54.599Z,27.67
2019-01-26T10:32:24.340Z,51.45
2019-01-26T10:34:53.868Z,22.87
2019-01-26T10:37:25.624Z,25.52
2019-01-26T10:39:55.279Z,23.52
2019-01-26T10:42:27.305Z,19.02
2019-01-26T10:44:57.101Z,23.57
2019-01-26T10:47:26.663Z,20.52
2019-01-26T10:49:56.254Z,27.62
2019-01-26T10:52:25.951Z,38.17
2019-01-26T10:54:55.651Z,25.05
2019-01-26T10:57:25.179Z,25.10
2019-01-26T10:59:54.774Z,26.60
2019-01-26T11:02:24.387Z,25.40
2019-01-26T11:04:54.408Z,25.00
2019-01-26T11:07:24.093Z,26.40
2019-01-26T11:09:53.668Z,27.58
2019-01-26T11:12:23.135Z,27.73
2019-01-26T11:14:52.838Z,26.02
2019-01-26T11:17:22.431Z,27.98
2019-01-26T11:19:52.177Z,28.83
2019-01-26T11:22:21.870Z,28.52
2019-01-26T11:24:51.579Z,28.45
2019-01-26T11:27:21.212Z,29.95
2019-01-26T11:29:51.131Z,26.35
2019-01-26T11:32:20.690Z,29.30
2019-01-26T11:34:50.398Z,34.90
2019-01-26T11:37:20.064Z,26.50
2019-01-26T11:39:53.767Z,23.40
2019-01-26T11:42:23.440Z,28.92
2019-01-26T11:44:58.076Z,28.20
2019-01-26T11:47:27.574Z,27.65
2019-01-26T11:49:59.221Z,29.72
2019-01-26T11:52:28.829Z,30.68
2019-01-26T11:55:14.007Z,27.82
2019-01-26T11:57:43.619Z,28.70
2019-01-26T12:00:29.131Z,23.57
2019-01-26T12:03:09.928Z,27.55
2019-01-26T12:05:44.785Z,28.65
2019-01-26T12:08:14.537Z,24.55
2019-01-26T12:10:44.023Z,29.45
2019-01-26T12:13:14.069Z,28.30
2019-01-26T12:15:43.583Z,99.60
2019-01-26T12:18:13.243Z,24.05
2019-01-26T12:20:42.900Z,30.08
2019-01-26T12:23:12.598Z,28.23
2019-01-26T12:25:42.266Z,27.35
2019-01-26T12:28:12.183Z,21.35
2019-01-26T12:30:41.786Z,28.38
2019-01-26T12:33:11.313Z,24.32
2019-01-26T12:35:41.056Z,27.02
2019-01-26T12:38:10.522Z,27.60
2019-01-26T12:40:40.231Z,23.27
2019-01-26T12:43:09.884Z,28.42
2019-01-26T12:45:39.279Z,27.75
2019-01-26T12:48:08.604Z,27.37
2019-01-26T12:50:38.344Z,26.85
2019-01-26T12:53:07.804Z,26.62
2019-01-26T12:55:38.893Z,28.12
2019-01-26T12:58:08.597Z,30.12
2019-01-26T13:00:38.167Z,27.50
2019-01-26T13:03:07.827Z,23.67
2019-01-26T13:05:37.443Z,26.05
2019-01-26T13:08:06.984Z,26.15
2019-01-26T13:10:39.858Z,22.42
2019-01-26T13:13:09.422Z,17.55
2019-01-26T13:15:39.513Z,24.07
2019-01-26T13:18:09.127Z,22.62
2019-01-26T13:20:38.618Z,28.12
2019-01-26T13:23:08.384Z,28.02
2019-01-26T13:25:38.124Z,21.85
2019-01-26T13:28:07.641Z,21.87
2019-01-26T13:30:37.309Z,22.20
2019-01-26T13:33:06.972Z,29.02
2019-01-26T13:35:36.739Z,26.73
2019-01-26T13:38:06.407Z,28.07
2019-01-26T13:40:36.284Z,26.65
2019-01-26T13:43:05.977Z,28.62
2019-01-26T13:45:35.703Z,25.45
2019-01-26T13:48:05.451Z,24.45
2019-01-26T13:50:35.224Z,23.00
2019-01-26T13:53:05.148Z,29.32
2019-01-26T13:55:35.077Z,30.27
2019-01-26T13:58:06.225Z,26.30
2019-01-26T14:00:35.632Z,27.60
2019-01-26T14:03:05.403Z,41.33
2019-01-26T14:05:35.025Z,159.65
2019-01-26T14:08:04.610Z,35.13
2019-01-26T14:10:34.410Z,52.00
2019-01-26T14:13:04.195Z,28.80
2019-01-26T14:15:33.768Z,26.40
2019-01-26T14:18:03.435Z,27.50
2019-01-26T14:20:33.189Z,28.57
2019-01-26T14:23:02.919Z,28.85
2019-01-26T14:25:32.635Z,25.37
2019-01-26T14:28:02.344Z,27.48
2019-01-26T14:30:35.948Z,23.50
2019-01-26T14:33:05.855Z,20.12
2019-01-26T14:35:35.560Z,26.85
2019-01-26T14:38:10.630Z,29.42
2019-01-26T14:40:40.383Z,26.15
2019-01-26T14:43:10.099Z,25.72
2019-01-26T14:45:39.637Z,29.63
2019-01-26T14:48:09.293Z,26.85
2019-01-26T14:50:38.907Z,31.10
2019-01-26T14:53:08.911Z,21.68
2019-01-26T14:55:38.955Z,31.25
2019-01-26T14:58:10.591Z,30.70
2019-01-26T15:00:40.336Z,28.07
2019-01-26T15:03:09.924Z,27.60
2019-01-26T15:05:39.588Z,32.70
2019-01-26T15:08:09.284Z,29.30
2019-01-26T15:10:39.058Z,28.67
2019-01-26T15:13:08.800Z,27.60
2019-01-26T15:15:38.488Z,25.27
2019-01-26T15:18:08.372Z,28.07
2019-01-26T15:20:39.743Z,26.62
2019-01-26T15:23:09.605Z,23.50
2019-01-26T15:25:39.066Z,17.65
2019-01-26T15:28:08.810Z,26.95
2019-01-26T15:30:40.438Z,23.75
2019-01-26T15:33:11.189Z,23.98
2019-01-26T15:35:40.005Z,25.30
2019-01-26T15:38:10.819Z,28.42
2019-01-26T15:40:40.580Z,24.12
2019-01-26T15:46:07.906Z,24.77
2019-01-26T15:48:37.330Z,29.15
2019-01-26T15:51:07.062Z,32.73
2019-01-26T15:53:36.735Z,32.53
2019-01-26T15:56:06.475Z,31.87
2019-01-26T15:58:36.010Z,41.00
2019-01-26T16:01:07.328Z,31.35
2019-01-26T16:03:36.934Z,32.95
2019-01-26T16:06:06.829Z,29.02
2019-01-26T16:08:36.771Z,26.80
2019-01-26T16:11:06.400Z,29.65
2019-01-26T16:13:35.998Z,32.40
2019-01-26T16:16:05.654Z,31.48
2019-01-26T16:18:35.568Z,30.45
2019-01-26T16:21:05.277Z,30.88
2019-01-26T16:23:35.022Z,29.65
2019-01-26T16:26:04.497Z,31.23
2019-01-26T16:28:34.147Z,30.90
2019-01-26T16:31:03.839Z,31.70
2019-01-26T16:33:33.615Z,26.10
2019-01-26T16:36:03.107Z,28.05
2019-01-26T16:38:32.920Z,27.98
2019-01-26T16:41:02.646Z,34.85
2019-01-26T16:43:32.385Z,83.07
2019-01-26T16:46:01.995Z,593.65
2019-01-26T16:48:31.835Z,539.73
2019-01-26T16:51:01.575Z,145.95
2019-01-26T16:53:31.409Z,384.80
2019-01-26T16:56:01.064Z,429.85
2019-01-26T16:58:30.692Z,817.50
2019-01-26T17:01:01.349Z,443.13
2019-01-26T17:03:30.832Z,703.12
2019-01-26T17:06:00.429Z,868.50
2019-01-26T17:08:30.353Z,848.78
2019-01-26T17:10:59.943Z,700.25
2019-01-26T17:13:29.676Z,999.90
2019-01-26T17:15:59.466Z,999.90
2019-01-26T17:18:28.976Z,999.90
2019-01-26T17:20:58.595Z,999.90
2019-01-26T17:23:28.263Z,687.88
2019-01-26T17:25:57.929Z,864.80
2019-01-26T17:28:27.407Z,997.93
2019-01-26T17:30:56.731Z,999.90
2019-01-26T17:33:26.632Z,999.90
2019-01-26T17:35:56.329Z,999.90
2019-01-26T17:38:26.112Z,940.25
2019-01-26T17:40:55.481Z,551.25
2019-01-26T17:43:24.945Z,999.90
2019-01-26T17:45:54.482Z,876.20
2019-01-26T17:48:24.185Z,728.27
2019-01-26T17:50:53.912Z,922.00
2019-01-26T17:53:23.401Z,999.90
2019-01-26T17:55:52.908Z,822.80
2019-01-26T17:58:22.660Z,171.70
2019-01-26T18:00:56.498Z,95.83
2019-01-26T18:03:26.328Z,121.47
2019-01-26T18:05:55.947Z,37.13
2019-01-26T18:08:25.647Z,248.72
2019-01-26T18:10:55.364Z,163.07
2019-01-26T18:13:25.065Z,596.80
2019-01-26T18:15:54.638Z,31.70
2019-01-26T18:18:24.301Z,26.50
2019-01-26T18:20:53.890Z,23.75
2019-01-26T18:23:31.511Z,28.30
2019-01-26T18:26:01.147Z,27.60
2019-01-26T18:28:30.654Z,28.12
2019-01-26T18:31:00.493Z,27.27
2019-01-26T18:33:30.356Z,30.45
2019-01-26T18:35:59.835Z,30.00
2019-01-26T18:38:29.256Z,29.35
2019-01-26T18:40:58.954Z,25.82
2019-01-26T18:43:28.565Z,42.43
2019-01-26T18:45:58.119Z,34.92
2019-01-26T18:48:27.723Z,35.15
2019-01-26T18:50:57.299Z,31.70
2019-01-26T18:53:27.752Z,35.13
2019-01-26T18:55:57.344Z,31.85
2019-01-26T18:58:26.827Z,25.30
2019-01-26T19:00:56.584Z,32.20
2019-01-26T19:03:33.420Z,32.15
2019-01-26T19:06:03.285Z,32.67
2019-01-26T19:08:32.840Z,33.75
2019-01-26T19:11:02.420Z,33.23
2019-01-26T19:13:32.414Z,32.90
2019-01-26T19:16:02.086Z,36.93
2019-01-26T19:18:31.854Z,49.63
2019-01-26T19:21:03.263Z,32.85
2019-01-26T19:23:32.160Z,35.83
2019-01-26T19:26:01.835Z,34.60
2019-01-26T19:28:31.584Z,35.60
2019-01-26T19:31:01.104Z,36.90
2019-01-26T19:33:30.866Z,33.70
2019-01-26T19:36:00.804Z,33.40
2019-01-26T19:38:30.292Z,32.67
2019-01-26T19:40:59.798Z,33.33
2019-01-26T19:43:29.431Z,36.77
2019-01-26T19:45:58.758Z,35.35
2019-01-26T19:48:28.255Z,33.70
2019-01-26T19:50:57.839Z,34.13
2019-01-26T19:53:27.553Z,32.40
2019-01-26T19:55:57.083Z,30.02
2019-01-26T19:58:26.767Z,31.00
2019-01-26T20:00:56.198Z,31.20
2019-01-26T20:03:25.800Z,27.05
2019-01-26T20:05:55.319Z,30.48
2019-01-26T20:08:25.059Z,27.22
2019-01-26T20:10:54.663Z,28.35
2019-01-26T20:13:24.541Z,25.77
2019-01-26T20:15:54.064Z,29.18
2019-01-26T20:18:24.017Z,29.77
2019-01-26T20:20:53.709Z,29.57
2019-01-26T20:23:23.242Z,28.73
2019-01-26T20:25:52.640Z,23.80
2019-01-26T20:28:22.537Z,29.77
2019-01-26T20:30:52.163Z,30.65
2019-01-26T20:33:21.733Z,28.95
2019-01-26T20:35:51.210Z,29.00
2019-01-26T20:38:20.782Z,29.35
2019-01-26T20:40:50.495Z,28.80
2019-01-26T20:43:20.152Z,26.35
2019-01-26T20:45:49.712Z,39.27
2019-01-26T20:48:19.372Z,115.03
2019-01-26T20:50:49.137Z,30.35
2019-01-26T20:53:18.615Z,29.52
2019-01-26T20:55:48.398Z,30.17
2019-01-26T20:58:18.063Z,28.30
2019-01-26T21:00:48.003Z,29.20
2019-01-26T21:03:18.057Z,29.87
2019-01-26T21:05:47.791Z,28.17
2019-01-26T21:08:17.428Z,25.62
2019-01-26T21:10:47.099Z,29.72
2019-01-26T21:13:16.821Z,29.25
2019-01-26T21:15:46.439Z,27.62
2019-01-26T21:18:16.190Z,25.60
2019-01-26T21:20:46.732Z,21.65
2019-01-26T21:23:18.899Z,27.70
2019-01-26T21:25:48.684Z,29.87
2019-01-26T21:28:18.371Z,28.50
2019-01-26T21:30:47.984Z,29.32
2019-01-26T21:33:17.556Z,30.27
2019-01-26T21:35:47.221Z,30.00
2019-01-26T21:38:16.906Z,30.32
2019-01-26T21:40:46.845Z,29.98
2019-01-26T21:43:16.544Z,29.80
2019-01-26T21:45:46.288Z,37.33
2019-01-26T21:48:15.995Z,29.63
2019-01-26T21:50:45.459Z,31.80
2019-01-26T21:53:15.060Z,28.95
2019-01-26T21:55:44.704Z,28.47
2019-01-26T21:58:14.268Z,28.10
2019-01-26T22:00:43.813Z,30.10
2019-01-26T22:03:13.550Z,18.00
2019-01-26T22:05:43.107Z,27.90
2019-01-26T22:08:12.889Z,28.65
2019-01-26T22:10:42.375Z,29.82
2019-01-26T22:13:11.931Z,29.48
2019-01-26T22:15:41.469Z,29.50
2019-01-26T22:18:11.194Z,25.82
2019-01-26T22:20:40.765Z,28.98
2019-01-26T22:23:10.363Z,23.87
2019-01-26T22:25:40.295Z,28.35
2019-01-26T22:28:09.995Z,29.12
2019-01-26T22:30:39.713Z,27.22
2019-01-26T22:33:09.322Z,28.65
2019-01-26T22:35:39.052Z,28.65
2019-01-26T22:38:08.848Z,60.30
2019-01-26T22:40:38.651Z,26.30
2019-01-26T22:43:08.391Z,25.82
2019-01-26T22:45:38.162Z,22.13
2019-01-26T22:48:07.954Z,27.90
2019-01-26T22:50:37.531Z,26.17
2019-01-26T22:53:07.175Z,27.13
2019-01-26T22:55:37.119Z,27.50
2019-01-26T22:58:07.140Z,27.40
2019-01-26T23:01:18.319Z,26.75
2019-01-26T23:06:03.495Z,21.48
2019-01-26T23:08:33.436Z,26.37
2019-01-26T23:11:11.066Z,26.73
2019-01-26T23:14:10.699Z,26.85
2019-01-26T23:18:54.627Z,25.27
2019-01-26T23:21:35.071Z,26.30
2019-01-26T23:24:43.303Z,25.30
2019-01-26T23:27:31.645Z,24.27
2019-01-26T23:31:15.147Z,26.95
2019-01-26T23:33:45.383Z,23.22
2019-01-26T23:36:15.395Z,26.15
2019-01-26T23:38:45.155Z,25.17
2019-01-26T23:41:15.006Z,23.40
2019-01-26T23:43:44.730Z,25.70
2019-01-26T23:46:14.283Z,20.95
2019-01-26T23:48:44.013Z,24.67
2019-01-26T23:51:13.731Z,23.55
2019-01-26T23:53:43.392Z,23.87
2019-01-26T23:56:13.311Z,26.60
2019-01-26T23:58:42.996Z,24.47
